createdAt,value
2022-10-09T00:03:24.878Z,82.21
2022-10-09T00:08:26.690Z,82.35
2022-10-09T00:13:28.334Z,81.43
2022-10-09T00:18:30.302Z,80.96
2022-10-09T00:23:32.525Z,80.64
2022-10-09T00:28:37.828Z,80.78
2022-10-09T00:33:40.613Z,81.09
2022-10-09T00:38:42.537Z,81.25
2022-10-09T00:43:56.110Z,81.54
2022-10-09T00:49:12.470Z,81.34
2022-10-09T00:54:18.269Z,81.71
2022-10-09T00:59:20.791Z,81.68
2022-10-09T01:04:22.579Z,81.48
2022-10-09T01:09:38.110Z,81.49
2022-10-09T01:14:54.355Z,81.47
2022-10-09T01:20:17.868Z,81.71
2022-10-09T01:25:35.462Z,82.25
2022-10-09T01:30:37.600Z,81.62
2022-10-09T01:35:41.571Z,81.94
2022-10-09T01:40:43.715Z,81.36
2022-10-09T01:45:47.134Z,81.60
2022-10-09T01:50:55.363Z,81.54
2022-10-09T01:56:09.245Z,81.33
2022-10-09T02:01:15.728Z,81.40
2022-10-09T02:06:19.224Z,81.37
2022-10-09T02:11:23.807Z,81.05
2022-10-09T02:16:37.395Z,80.70
2022-10-09T02:21:50.322Z,81.37
2022-10-09T02:26:56.153Z,81.34
2022-10-09T02:31:57.996Z,80.30
2022-10-09T02:36:59.687Z,80.60
2022-10-09T02:42:01.652Z,80.84
2022-10-09T02:47:03.353Z,80.87
2022-10-09T02:52:05.439Z,79.39
2022-10-09T02:57:07.078Z,80.01
2022-10-09T03:02:08.924Z,79.32
2022-10-09T03:07:10.922Z,78.72
2022-10-09T03:12:13.920Z,78.76
2022-10-09T03:17:15.611Z,79.80
2022-10-09T03:22:17.297Z,79.38
2022-10-09T03:27:19.189Z,79.37
2022-10-09T03:32:20.950Z,79.21
2022-10-09T03:37:22.852Z,78.46
2022-10-09T03:42:25.047Z,78.79
2022-10-09T03:47:26.777Z,78.70
2022-10-09T03:52:28.442Z,78.75
2022-10-09T03:57:30.161Z,78.58
2022-10-09T04:02:33.428Z,77.97
2022-10-09T04:07:35.266Z,78.05
2022-10-09T04:12:37.029Z,79.02
2022-10-09T04:17:38.723Z,79.12
2022-10-09T04:22:40.544Z,78.86
2022-10-09T04:27:42.182Z,79.96
2022-10-09T04:32:43.857Z,79.66
2022-10-09T04:37:45.546Z,79.77
2022-10-09T04:42:47.589Z,79.29
2022-10-09T04:47:49.489Z,78.63
2022-10-09T04:52:51.562Z,78.67
2022-10-09T04:57:53.317Z,79.55
2022-10-09T05:02:55.407Z,79.29
2022-10-09T05:07:57.086Z,79.23
2022-10-09T05:12:59.375Z,78.83
2022-10-09T05:18:01.136Z,78.95
2022-10-09T05:23:03.019Z,79.09
2022-10-09T05:28:06.304Z,79.26
2022-10-09T05:33:08.079Z,78.65
2022-10-09T05:38:09.785Z,78.79
2022-10-09T05:43:11.494Z,79.12
2022-10-09T05:48:13.185Z,79.56
2022-10-09T05:53:14.830Z,78.94
2022-10-09T05:58:16.453Z,80.23
2022-10-09T06:03:18.154Z,80.17
2022-10-09T06:08:20.096Z,80.65
2022-10-09T06:13:21.958Z,80.24
2022-10-09T06:18:23.627Z,81.20
2022-10-09T06:23:25.775Z,81.95
2022-10-09T06:28:32.356Z,81.56
2022-10-09T06:33:35.890Z,82.09
2022-10-09T06:38:38.915Z,82.77
2022-10-09T06:43:40.659Z,83.10
2022-10-09T06:48:42.968Z,83.46
2022-10-09T06:53:48.999Z,84.45
2022-10-09T06:58:51.427Z,86.68
2022-10-09T07:03:56.169Z,88.91
2022-10-09T07:09:04.410Z,90.90
2022-10-09T07:14:08.383Z,91.72
2022-10-09T07:19:11.712Z,92.85
2022-10-09T07:24:14.457Z,93.64
2022-10-09T07:29:18.219Z,94.59
2022-10-09T07:34:19.903Z,94.84
2022-10-09T07:39:21.743Z,95.11
2022-10-09T07:44:23.405Z,95.07
2022-10-09T07:49:25.133Z,94.78
2022-10-09T07:54:27.063Z,94.65
2022-10-09T07:59:28.904Z,94.37
2022-10-09T08:04:30.894Z,94.32
2022-10-09T08:09:32.675Z,94.06
2022-10-09T08:14:34.442Z,93.69
2022-10-09T08:19:36.037Z,93.21
2022-10-09T08:24:38.397Z,92.64
2022-10-09T08:29:40.509Z,92.29
2022-10-09T08:34:42.289Z,91.68
2022-10-09T08:39:43.992Z,91.46
2022-10-09T08:44:49.078Z,90.88
2022-10-09T08:50:00.157Z,89.79
2022-10-09T08:55:28.764Z,89.12
2022-10-09T09:00:43.993Z,88.62
2022-10-09T09:05:55.073Z,86.52
2022-10-09T09:11:28.076Z,84.74
2022-10-09T09:16:48.149Z,80.64
2022-10-09T09:21:51.917Z,79.60
2022-10-09T09:26:59.423Z,79.15
2022-10-09T09:32:01.265Z,79.08
2022-10-09T09:37:03.169Z,78.29
2022-10-09T09:42:13.320Z,77.96
2022-10-09T09:47:27.743Z,77.64
2022-10-09T09:52:35.953Z,76.16
2022-10-09T09:57:44.397Z,75.91
2022-10-09T10:02:46.778Z,76.45
2022-10-09T10:07:51.357Z,75.10
2022-10-09T10:12:53.503Z,74.03
2022-10-09T10:18:04.580Z,73.23
2022-10-09T10:23:20.445Z,74.56
2022-10-09T10:28:31.343Z,72.75
2022-10-09T10:33:36.405Z,73.50
2022-10-09T10:38:58.781Z,72.64
2022-10-09T10:44:22.904Z,73.28
2022-10-09T10:49:24.691Z,73.54
2022-10-09T10:54:29.486Z,73.09
2022-10-09T10:59:42.615Z,72.37
2022-10-09T11:04:50.107Z,72.25
2022-10-09T11:10:24.162Z,71.16
2022-10-09T11:15:44.677Z,71.03
2022-10-09T11:21:02.758Z,70.21
2022-10-09T11:26:04.329Z,68.96
2022-10-09T11:31:41.543Z,69.34
2022-10-09T11:36:45.387Z,69.75
2022-10-09T11:41:48.898Z,68.69
2022-10-09T11:47:09.935Z,68.95
2022-10-09T11:52:26.345Z,67.94
2022-10-09T11:57:29.368Z,68.30
2022-10-09T12:02:31.817Z,68.53
2022-10-09T12:07:33.627Z,67.30
2022-10-09T12:12:38.734Z,67.70
2022-10-09T12:17:49.724Z,67.67
2022-10-09T12:23:25.054Z,68.62
2022-10-09T12:28:28.069Z,67.23
2022-10-09T12:33:45.197Z,68.01
2022-10-09T12:38:46.991Z,67.61
2022-10-09T12:43:54.527Z,66.58
2022-10-09T12:48:57.959Z,66.15
2022-10-09T12:54:00.063Z,66.88
2022-10-09T12:59:02.574Z,66.74
2022-10-09T13:04:06.350Z,66.47
2022-10-09T13:09:21.494Z,66.74
2022-10-09T13:14:44.608Z,66.97
2022-10-09T13:19:55.504Z,66.91
2022-10-09T13:24:59.163Z,66.41
2022-10-09T13:30:01.546Z,66.64
2022-10-09T13:35:03.547Z,67.21
2022-10-09T13:40:05.966Z,66.63
2022-10-09T13:45:08.441Z,67.23
2022-10-09T13:50:13.720Z,67.51
2022-10-09T13:55:15.480Z,67.49
2022-10-09T14:00:17.384Z,67.47
2022-10-09T14:05:19.365Z,67.39
2022-10-09T14:10:23.884Z,67.79
2022-10-09T14:15:25.911Z,67.39
2022-10-09T14:20:28.510Z,68.12
2022-10-09T14:25:30.432Z,68.03
2022-10-09T14:30:32.166Z,68.04
2022-10-09T14:35:34.532Z,67.61
2022-10-09T14:40:41.745Z,68.19
2022-10-09T14:45:43.441Z,68.60
2022-10-09T14:50:45.077Z,68.84
2022-10-09T14:55:46.894Z,68.91
2022-10-09T15:00:48.674Z,69.24
2022-10-09T15:05:50.425Z,69.87
2022-10-09T15:10:53.234Z,70.01
2022-10-09T15:15:58.965Z,70.16
2022-10-09T15:21:00.908Z,70.06
2022-10-09T15:26:02.806Z,69.96
2022-10-09T15:31:06.552Z,70.50
2022-10-09T15:36:08.518Z,70.60
2022-10-09T15:41:27.359Z,70.54
2022-10-09T15:46:30.093Z,70.56
2022-10-09T15:51:33.210Z,70.72
2022-10-09T15:56:38.900Z,70.80
2022-10-09T16:01:41.839Z,70.66
2022-10-09T16:06:43.543Z,70.89
2022-10-09T16:11:45.462Z,71.18
2022-10-09T16:16:48.528Z,71.77
2022-10-09T16:21:51.538Z,72.36
2022-10-09T16:26:54.367Z,73.29
2022-10-09T16:31:56.621Z,73.82
2022-10-09T16:37:01.857Z,73.76
2022-10-09T16:42:04.071Z,73.77
2022-10-09T16:47:05.889Z,74.14
2022-10-09T16:52:07.566Z,74.61
2022-10-09T16:57:09.290Z,74.83
2022-10-09T17:02:12.271Z,75.05
2022-10-09T17:07:14.141Z,75.17
2022-10-09T17:12:15.967Z,75.58
2022-10-09T17:17:17.768Z,76.47
2022-10-09T17:22:19.445Z,77.23
2022-10-09T17:27:21.172Z,77.73
2022-10-09T17:32:23.001Z,78.04
2022-10-09T17:37:25.008Z,78.08
2022-10-09T17:42:26.629Z,77.99
2022-10-09T17:47:28.372Z,78.12
2022-10-09T17:52:30.058Z,78.12
2022-10-09T17:57:31.871Z,77.76
2022-10-09T18:02:33.597Z,77.81
2022-10-09T18:07:35.520Z,78.09
2022-10-09T18:12:37.175Z,78.61
2022-10-09T18:17:39.017Z,78.81
2022-10-09T18:22:40.675Z,78.92
2022-10-09T18:27:42.399Z,79.24
2022-10-09T18:32:44.163Z,79.48
2022-10-09T18:37:45.940Z,79.74
2022-10-09T18:42:47.957Z,79.68
2022-10-09T18:47:51.315Z,79.75
2022-10-09T18:52:54.085Z,79.72
2022-10-09T18:57:56.063Z,80.55
2022-10-09T19:02:57.738Z,80.89
2022-10-09T19:07:59.477Z,81.12
2022-10-09T19:13:01.262Z,80.32
2022-10-09T19:18:02.900Z,80.49
2022-10-09T19:23:04.659Z,80.24
2022-10-09T19:28:06.422Z,80.49
2022-10-09T19:33:08.554Z,80.28
2022-10-09T19:38:10.247Z,80.39
2022-10-09T19:43:12.924Z,80.31
2022-10-09T19:48:16.139Z,80.25
2022-10-09T19:53:17.805Z,80.65
2022-10-09T19:58:19.502Z,80.88
2022-10-09T20:03:21.246Z,80.96
2022-10-09T20:08:22.902Z,80.82
2022-10-09T20:13:24.574Z,80.55
2022-10-09T20:18:26.885Z,80.34
2022-10-09T20:23:28.566Z,80.25
2022-10-09T20:28:35.236Z,80.33
2022-10-09T20:33:38.437Z,80.36
2022-10-09T20:38:40.111Z,80.58
2022-10-09T20:43:41.857Z,80.96
2022-10-09T20:48:44.485Z,80.94
2022-10-09T20:53:50.589Z,80.35
2022-10-09T20:58:52.632Z,80.53
2022-10-09T21:03:59.055Z,80.47
2022-10-09T21:09:00.815Z,80.98
2022-10-09T21:14:03.170Z,80.70
2022-10-09T21:19:06.175Z,80.73
2022-10-09T21:24:08.064Z,81.25
2022-10-09T21:29:11.194Z,81.32
2022-10-09T21:34:12.871Z,81.47
2022-10-09T21:39:14.633Z,81.68
2022-10-09T21:44:16.384Z,81.53
2022-10-09T21:49:27.168Z,81.59
2022-10-09T21:54:28.991Z,81.89
2022-10-09T21:59:30.631Z,81.78
2022-10-09T22:04:32.457Z,82.01
2022-10-09T22:09:34.230Z,82.47
2022-10-09T22:14:35.896Z,82.56
2022-10-09T22:19:37.573Z,82.72
2022-10-09T22:24:39.333Z,82.61
2022-10-09T22:29:41.034Z,83.16
2022-10-09T22:34:42.685Z,83.49
2022-10-09T22:39:44.343Z,83.73
2022-10-09T22:44:46.098Z,83.24
2022-10-09T22:49:50.374Z,83.20
2022-10-09T22:54:52.608Z,83.11
2022-10-09T22:59:54.264Z,83.31
2022-10-09T23:04:55.952Z,83.68
2022-10-09T23:09:57.726Z,84.01
2022-10-09T23:14:59.522Z,84.51
2022-10-09T23:20:01.205Z,84.71
2022-10-09T23:25:03.551Z,84.76
2022-10-09T23:30:05.947Z,84.70
2022-10-09T23:35:08.229Z,84.39
2022-10-09T23:40:09.955Z,84.45
2022-10-09T23:45:11.642Z,84.67
2022-10-09T23:50:13.275Z,84.53
2022-10-09T23:55:15.041Z,84.24
